Time;durP1;ratioP1;P1;durP2;ratioP2;P2;SDS_P1;SDS_P2;PMS_P1;PMS_P2;Temp;Humidity;BMP_temperature;BMP_pressure;BME280_temperature;BME280_humidity;BME280_pressure;Samples;Min_cycle;Max_cycle;Signal;HPM_P1;HPM_P2
2023/08/17 00:00:51;;;;;;;0.80;0.80;;;;;;;20.94;76.91;101257.38;6344832;23;20008;-87
2023/08/17 00:03:21;;;;;;;0.40;0.40;;;;;;;20.77;77.68;101251.28;6372000;23;20719;-87
2023/08/17 00:05:52;;;;;;;0.30;0.30;;;;;;;20.78;77.85;101244.16;6371582;23;20032;-88
2023/08/17 00:08:22;;;;;;;0.60;0.60;;;;;;;20.55;79.28;101244.59;6345206;23;20063;-88
2023/08/17 00:10:53;;;;;;;0.35;0.35;;;;;;;20.71;78.80;101246.31;6370817;23;20830;-87
2023/08/17 00:13:23;;;;;;;0.70;0.70;;;;;;;20.67;78.22;101250.09;6378325;23;20009;-90
2023/08/17 00:15:53;;;;;;;1.65;1.17;;;;;;;20.71;77.87;101255.16;6347585;23;20005;-87
2023/08/17 00:18:24;;;;;;;0.50;0.50;;;;;;;20.72;77.05;101254.19;6345545;23;20040;-88
2023/08/17 00:20:54;;;;;;;0.50;0.50;;;;;;;20.61;77.58;101251.34;6315980;23;20009;-89
2023/08/17 00:23:24;;;;;;;2.28;0.85;;;;;;;20.63;77.55;101254.75;6315628;23;20008;-88
2023/08/17 00:25:55;;;;;;;0.47;0.47;;;;;;;20.79;75.81;101248.50;6340752;23;20108;-88
2023/08/17 00:28:26;;;;;;;2.50;1.17;;;;;;;20.77;76.87;101251.28;6315477;23;20076;-88
2023/08/17 00:30:56;;;;;;;0.82;0.82;;;;;;;20.74;75.94;101249.69;6316778;23;20009;-89
2023/08/17 00:33:27;;;;;;;1.35;0.40;;;;;;;20.78;75.60;101254.84;6340117;23;20009;-88
2023/08/17 00:35:57;;;;;;;0.40;0.40;;;;;;;20.65;76.34;101255.53;6318950;23;20025;-88
2023/08/17 00:38:28;;;;;;;0.38;0.38;;;;;;;20.79;75.47;101254.72;6340373;23;20330;-87
2023/08/17 00:40:58;;;;;;;0.40;0.40;;;;;;;20.58;78.32;101256.88;6316819;23;20069;-88
2023/08/17 00:43:28;;;;;;;0.32;0.32;;;;;;;20.72;75.65;101258.69;6341215;23;20096;-88
2023/08/17 00:45:59;;;;;;;0.32;0.32;;;;;;;20.80;75.71;101259.09;6341307;23;20448;-89
2023/08/17 00:48:31;;;;;;;0.57;0.57;;;;;;;20.66;77.26;101265.25;6341321;23;20029;-88
2023/08/17 00:51:02;;;;;;;1.27;1.17;;;;;;;20.38;79.75;101264.25;6315768;23;20099;-88
2023/08/17 00:53:33;;;;;;;0.93;0.90;;;;;;;20.55;78.02;101257.91;6316898;23;20009;-88
2023/08/17 00:56:03;;;;;;;0.60;0.60;;;;;;;20.41;78.97;101248.09;6315817;23;20012;-89
2023/08/17 00:58:34;;;;;;;0.75;0.75;;;;;;;20.65;76.34;101244.03;6339579;23;20560;-88
2023/08/17 01:01:04;;;;;;;0.43;0.43;;;;;;;20.35;80.13;101248.47;6317233;23;20048;-88
2023/08/17 01:03:35;;;;;;;0.43;0.43;;;;;;;20.63;75.87;101246.75;6346817;23;20005;-87
2023/08/17 01:06:06;;;;;;;0.98;0.80;;;;;;;20.64;75.83;101245.81;6323414;23;20009;-88
2023/08/17 01:08:37;;;;;;;0.40;0.40;;;;;;;20.68;76.01;101249.16;6318851;23;20037;-89
2023/08/17 01:11:17;;;;;;;0.90;0.82;;;;;;;20.56;78.28;101243.63;6340968;23;20055;-88
2023/08/17 01:14:08;;;;;;;0.50;0.50;;;;;;;20.54;78.18;101244.66;6317764;23;20101;-89
2023/08/17 01:16:52;;;;;;;0.43;0.43;;;;;;;20.59;76.27;101242.59;6375634;23;20005;-89
2023/08/17 01:19:27;;;;;;;2.53;1.05;;;;;;;20.62;76.78;101231.72;6315694;23;20060;-89
2023/08/17 01:22:04;;;;;;;0.80;0.80;;;;;;;20.43;78.68;101239.97;6319164;23;20020;-89
2023/08/17 01:24:35;;;;;;;0.95;0.90;;;;;;;20.54;76.67;101234.00;6341970;23;20049;-89
2023/08/17 01:27:05;;;;;;;0.63;0.63;;;;;;;20.63;76.03;101229.94;6377640;23;20056;-89
2023/08/17 01:29:36;;;;;;;0.52;0.52;;;;;;;20.55;76.59;101225.06;6350594;23;20451;-89
2023/08/17 01:32:16;;;;;;;0.30;0.30;;;;;;;20.52;77.74;101233.25;6316420;23;20041;-88
2023/08/17 01:35:30;;;;;;;0.77;0.77;;;;;;;20.63;76.75;101235.25;6315604;23;20013;-88
2023/08/17 01:38:04;;;;;;;;;;;;;;;20.57;76.15;101228.50;6298324;23;20013;-87
2023/08/17 01:40:34;;;;;;;1.45;0.57;;;;;;;20.48;77.19;101231.72;6316087;23;19932;-89
2023/08/17 01:43:06;;;;;;;0.38;0.38;;;;;;;20.57;75.76;101224.03;6313489;23;20047;-88
2023/08/17 01:45:36;;;;;;;1.45;0.45;;;;;;;20.52;76.84;101227.94;6315963;23;20072;-87
2023/08/17 01:48:06;;;;;;;0.70;0.70;;;;;;;20.43;77.58;101229.31;6313786;23;20021;-88
2023/08/17 01:50:37;;;;;;;0.50;0.50;;;;;;;20.44;78.01;101229.25;6314926;23;20528;-89
2023/08/17 01:53:09;;;;;;;1.95;1.08;;;;;;;20.39;77.11;101225.16;6319311;23;20064;-90
2023/08/17 01:55:40;;;;;;;1.17;0.60;;;;;;;20.32;78.02;101229.97;6338779;23;20072;-88
2023/08/17 01:58:10;;;;;;;0.98;0.88;;;;;;;20.36;77.07;101227.97;6339665;23;20013;-88
2023/08/17 02:00:40;;;;;;;0.60;0.57;;;;;;;20.40;77.32;101232.19;6337910;23;20052;-88
2023/08/17 02:03:11;;;;;;;0.52;0.52;;;;;;;20.28;78.89;101231.97;6339330;23;20089;-88
2023/08/17 02:05:47;;;;;;;0.43;0.43;;;;;;;20.12;78.98;101232.00;6316202;23;20045;-88
2023/08/17 02:08:18;;;;;;;0.32;0.32;;;;;;;20.34;77.06;101233.41;6313651;23;20108;-87
2023/08/17 02:10:48;;;;;;;0.70;0.60;;;;;;;20.31;77.71;101238.91;6318685;23;20112;-89
2023/08/17 02:13:18;;;;;;;0.35;0.35;;;;;;;20.43;76.79;101232.00;6317785;23;20009;-88
2023/08/17 02:15:49;;;;;;;0.60;0.43;;;;;;;20.43;76.06;101232.88;6348762;23;20025;-89
2023/08/17 02:18:19;;;;;;;0.32;0.32;;;;;;;20.47;76.61;101230.88;6338616;23;20012;-89
2023/08/17 02:20:50;;;;;;;0.45;0.35;;;;;;;20.32;77.65;101227.31;6337441;23;20036;-88
2023/08/17 02:23:20;;;;;;;0.30;0.30;;;;;;;20.38;76.65;101229.59;6314191;23;20001;-88
2023/08/17 02:25:51;;;;;;;0.30;0.30;;;;;;;20.28;77.78;101231.13;6338165;23;20001;-88
2023/08/17 02:28:21;;;;;;;1.38;0.60;;;;;;;20.30;77.80;101229.22;6314613;23;20088;-87
2023/08/17 02:30:56;;;;;;;0.30;0.30;;;;;;;20.31;77.00;101232.75;6313258;23;20068;-89
2023/08/17 02:33:27;;;;;;;0.40;0.40;;;;;;;20.27;77.33;101222.25;6348835;23;20034;-88
2023/08/17 02:35:57;;;;;;;0.40;0.40;;;;;;;20.34;76.82;101222.75;6337393;23;20005;-88
2023/08/17 02:38:27;;;;;;;0.55;0.55;;;;;;;20.22;77.97;101213.69;6338252;23;20006;-89
2023/08/17 02:40:58;;;;;;;0.45;0.45;;;;;;;20.36;76.42;101215.53;6315896;23;20009;-87
2023/08/17 02:43:28;;;;;;;0.30;0.30;;;;;;;20.34;76.82;101214.75;6342857;23;20025;-89
2023/08/17 02:45:59;;;;;;;0.35;0.35;;;;;;;20.38;75.64;101210.94;6342630;23;20511;-87
2023/08/17 02:48:29;;;;;;;0.95;0.95;;;;;;;20.18;78.02;101211.31;6337516;23;20090;-88
2023/08/17 02:51:00;;;;;;;0.82;0.82;;;;;;;20.22;77.42;101207.50;6311856;23;20009;-88
2023/08/17 02:53:30;;;;;;;0.82;0.82;;;;;;;20.20;76.96;101207.59;6347152;23;20016;-88
2023/08/17 02:56:01;;;;;;;0.50;0.50;;;;;;;20.21;77.31;101200.44;6312760;23;20044;-88
2023/08/17 02:58:31;;;;;;;0.60;0.60;;;;;;;20.07;78.32;101194.16;6313048;23;20005;-88
2023/08/17 03:01:03;;;;;;;0.63;0.63;;;;;;;20.07;78.82;101204.81;6312406;23;20348;-88
2023/08/17 03:03:34;;;;;;;0.65;0.65;;;;;;;20.22;77.58;101207.50;6337533;23;20052;-89
2023/08/17 03:06:04;;;;;;;0.77;0.77;;;;;;;20.26;77.27;101198.38;6312314;23;20009;-90
2023/08/17 03:08:35;;;;;;;0.40;0.40;;;;;;;20.17;77.60;101194.44;6312901;23;20024;-88
2023/08/17 03:11:07;;;;;;;0.82;0.82;;;;;;;20.21;77.44;101200.44;6312647;23;20332;-89
2023/08/17 03:13:37;;;;;;;0.63;0.60;;;;;;;20.11;78.45;101195.69;6337776;23;20152;-89
2023/08/17 03:16:08;;;;;;;0.50;0.50;;;;;;;20.21;77.24;101196.00;6313946;23;20029;-89
2023/08/17 03:18:38;;;;;;;0.93;0.93;;;;;;;20.22;76.84;101197.72;6315344;23;20020;-89
2023/08/17 03:21:08;;;;;;;0.20;0.20;;;;;;;20.15;77.77;101200.81;6338091;23;20009;-89
2023/08/17 03:23:40;;;;;;;0.52;0.52;;;;;;;20.06;78.33;101197.75;6338414;23;20084;-89
2023/08/17 03:26:10;;;;;;;0.60;0.60;;;;;;;19.79;80.82;101190.41;6313654;23;20387;-89
2023/08/17 03:28:41;;;;;;;0.63;0.63;;;;;;;19.99;78.57;101195.56;6314147;23;20100;-88
2023/08/17 03:31:11;;;;;;;0.50;0.50;;;;;;;20.06;78.63;101199.59;6339075;23;20010;-88
2023/08/17 03:33:41;;;;;;;0.43;0.43;;;;;;;19.99;78.32;101201.75;6313223;23;20009;-88
2023/08/17 03:36:12;;;;;;;0.38;0.38;;;;;;;19.98;78.79;101194.69;6314492;23;20443;-90
2023/08/17 03:38:42;;;;;;;1.30;0.90;;;;;;;19.90;79.55;101199.63;6313873;23;20006;-88
2023/08/17 03:41:13;;;;;;;0.30;0.30;;;;;;;19.86;79.42;101206.09;6313166;23;20013;-89
2023/08/17 03:43:43;;;;;;;0.70;0.70;;;;;;;19.94;77.86;101201.16;6313115;23;20023;-89
2023/08/17 03:46:13;;;;;;;0.75;0.75;;;;;;;19.64;79.71;101208.16;6314069;23;20033;-89
2023/08/17 03:48:44;;;;;;;0.52;0.52;;;;;;;19.67;79.33;101201.78;6314907;23;20021;-88
2023/08/17 03:51:14;;;;;;;0.45;0.45;;;;;;;19.83;78.42;101201.78;6314412;23;20014;-88
2023/08/17 03:53:44;;;;;;;0.43;0.43;;;;;;;19.75;78.46;101207.53;6339400;23;20021;-88
2023/08/17 03:56:15;;;;;;;1.05;0.95;;;;;;;19.73;78.80;101213.91;6314903;23;20009;-88
2023/08/17 03:58:45;;;;;;;1.48;1.02;;;;;;;19.60;79.15;101217.25;6313959;23;20299;-87
2023/08/17 04:01:16;;;;;;;1.10;1.00;;;;;;;19.66;78.80;101221.38;6337385;23;20100;-88
2023/08/17 04:03:46;;;;;;;1.38;0.93;;;;;;;19.52;79.82;101219.50;6313165;23;20005;-89
2023/08/17 04:06:16;;;;;;;1.75;1.38;;;;;;;19.31;81.24;101218.91;6315018;23;20001;-90
2023/08/17 04:08:47;;;;;;;1.27;1.17;;;;;;;19.37;80.81;101218.59;6315332;23;20017;-89
2023/08/17 04:11:17;;;;;;;3.10;0.65;;;;;;;19.34;80.70;101218.75;6313632;23;20009;-90
2023/08/17 04:13:47;;;;;;;0.80;0.80;;;;;;;19.37;80.79;101226.56;6363239;23;19993;-89
2023/08/17 04:16:18;;;;;;;0.47;0.47;;;;;;;19.38;79.53;101228.25;6351803;23;20456;-91
2023/08/17 04:18:48;;;;;;;0.80;0.80;;;;;;;19.35;80.36;101229.28;6315477;23;20008;-90
2023/08/17 04:21:20;;;;;;;0.55;0.55;;;;;;;19.39;78.80;101240.63;6342560;23;20149;-89
2023/08/17 04:23:50;;;;;;;4.50;1.10;;;;;;;19.35;80.18;101229.28;6344870;23;20012;-90
2023/08/17 04:26:20;;;;;;;1.30;0.60;;;;;;;19.47;78.21;101232.22;6340968;23;20379;-88
2023/08/17 04:28:51;;;;;;;1.20;1.10;;;;;;;19.33;80.08;101230.31;6316099;23;20020;-89
2023/08/17 04:31:21;;;;;;;0.52;0.52;;;;;;;19.33;79.98;101238.31;6313273;23;20032;-90
2023/08/17 04:33:52;;;;;;;0.93;0.93;;;;;;;19.26;80.33;101239.59;6315085;23;20521;-90
2023/08/17 04:36:22;;;;;;;1.33;1.15;;;;;;;19.30;79.38;101241.13;6315809;23;20002;-90
2023/08/17 04:38:52;;;;;;;0.88;0.88;;;;;;;19.28;80.51;101232.41;6339585;23;20005;-90
2023/08/17 04:41:23;;;;;;;0.60;0.60;;;;;;;19.29;79.13;101240.28;6315055;23;20006;-90
2023/08/17 04:43:53;;;;;;;0.93;0.93;;;;;;;19.37;78.63;101250.50;6315270;23;20032;-89
2023/08/17 04:46:24;;;;;;;3.08;1.38;;;;;;;19.21;80.54;101246.97;6344044;23;20013;-90
2023/08/17 04:48:55;;;;;;;1.20;1.10;;;;;;;19.34;78.84;101248.00;6337699;23;20061;-90
2023/08/17 04:51:25;;;;;;;0.85;0.85;;;;;;;19.32;79.44;101249.88;6363335;23;20085;-90
2023/08/17 04:53:56;;;;;;;1.17;0.90;;;;;;;19.22;81.06;101254.00;6362171;23;20009;-89
2023/08/17 04:56:27;;;;;;;1.20;1.05;;;;;;;19.17;80.67;101246.28;6326028;23;20028;-91
2023/08/17 04:58:58;;;;;;;1.17;1.08;;;;;;;19.21;80.23;101252.31;6388938;23;20032;-89
2023/08/17 05:01:28;;;;;;;1.90;1.80;;;;;;;19.08;82.18;101247.63;6333860;23;20009;-91
2023/08/17 05:03:58;;;;;;;1.65;1.55;;;;;;;19.31;79.53;101248.16;6335217;23;20009;-90
2023/08/17 05:06:29;;;;;;;0.70;0.70;;;;;;;19.27;79.37;101236.84;6306549;23;20010;-89
2023/08/17 05:08:59;;;;;;;1.00;0.88;;;;;;;19.34;78.85;101243.53;6323175;23;20343;-90
2023/08/17 05:11:30;;;;;;;7.22;1.35;;;;;;;19.37;78.77;101241.66;6332859;23;20014;-89
2023/08/17 05:14:00;;;;;;;1.27;0.95;;;;;;;19.40;78.11;101247.66;6333527;23;20028;-89
2023/08/17 05:16:31;;;;;;;1.00;1.00;;;;;;;19.43;77.70;101243.97;6332486;23;20045;-90
2023/08/17 05:19:01;;;;;;;1.33;1.27;;;;;;;19.37;79.81;101241.66;6368342;23;20009;-90
2023/08/17 05:21:31;;;;;;;0.25;0.25;;;;;;;19.34;79.48;101248.00;6333223;23;20009;-90
2023/08/17 05:24:02;;;;;;;1.23;1.00;;;;;;;19.33;79.69;101252.47;6331955;23;20009;-90
2023/08/17 05:26:32;;;;;;;1.30;1.17;;;;;;;19.24;80.27;101247.66;6367057;23;20002;-89
2023/08/17 05:29:03;;;;;;;1.30;1.27;;;;;;;19.38;79.80;101260.19;6332236;23;20021;-90
2023/08/17 05:31:33;;;;;;;6.10;2.80;;;;;;;19.44;79.09;101264.31;6306458;23;20356;-90
2023/08/17 05:34:04;;;;;;;1.63;1.52;;;;;;;19.36;80.06;101270.06;6307669;23;20347;-89
2023/08/17 05:36:34;;;;;;;1.10;1.00;;;;;;;19.35;78.80;101255.91;6331475;23;20259;-89
2023/08/17 05:39:04;;;;;;;5.53;3.03;;;;;;;19.42;78.17;101255.56;6330682;23;20363;-90
2023/08/17 05:41:35;;;;;;;0.60;0.60;;;;;;;19.18;80.67;101262.16;6369096;23;20017;-90
2023/08/17 05:44:06;;;;;;;0.77;0.77;;;;;;;19.35;78.62;101261.22;6331888;23;20025;-90
2023/08/17 05:46:37;;;;;;;0.98;0.93;;;;;;;19.18;81.10;101256.84;6307783;23;20056;-90
2023/08/17 05:49:07;;;;;;;0.57;0.57;;;;;;;19.37;79.05;101257.63;6308924;23;20092;-91
2023/08/17 05:51:37;;;;;;;1.13;0.82;;;;;;;19.43;78.02;101260.81;6308043;23;20013;-90
2023/08/17 05:54:08;;;;;;;0.47;0.47;;;;;;;19.28;80.73;101261.66;6332333;23;20009;-90
2023/08/17 05:56:38;;;;;;;1.30;1.23;;;;;;;19.42;78.09;101267.06;6333601;23;20001;-90
2023/08/17 05:59:08;;;;;;;1.35;1.25;;;;;;;19.27;81.05;101265.25;6333111;23;20009;-90
2023/08/17 06:01:40;;;;;;;1.17;1.08;;;;;;;19.34;79.49;101269.28;6331587;23;20459;-90
2023/08/17 06:04:10;;;;;;;1.75;1.65;;;;;;;19.41;80.26;101265.34;6368968;23;20092;-90
2023/08/17 06:06:40;;;;;;;1.90;1.00;;;;;;;19.33;80.75;101263.13;6331490;23;20009;-90
2023/08/17 06:09:11;;;;;;;3.40;1.50;;;;;;;19.35;81.07;101260.38;6307994;23;20444;-90
2023/08/17 06:11:41;;;;;;;0.80;0.80;;;;;;;19.11;82.85;101263.44;6332730;23;20001;-90
2023/08/17 06:14:12;;;;;;;1.77;1.45;;;;;;;19.28;80.54;101259.00;6334420;23;20001;-90
2023/08/17 06:16:42;;;;;;;1.35;1.25;;;;;;;19.41;80.14;101259.19;6335486;23;20332;-90
2023/08/17 06:19:12;;;;;;;1.48;1.38;;;;;;;19.29;81.06;101260.72;6332740;23;20001;-90
2023/08/17 06:21:43;;;;;;;0.75;0.70;;;;;;;19.35;80.77;101265.69;6333219;23;20001;-90
2023/08/17 06:24:13;;;;;;;0.70;0.70;;;;;;;19.52;79.11;101259.41;6307626;23;20060;-90
2023/08/17 06:26:45;;;;;;;1.25;1.25;;;;;;;19.55;78.41;101267.25;6335671;23;20065;-89
2023/08/17 06:29:15;;;;;;;2.75;1.75;;;;;;;19.56;79.15;101268.09;6311151;23;20020;-90
2023/08/17 06:31:46;;;;;;;1.23;1.13;;;;;;;19.60;79.15;101274.97;6334781;23;20013;-90
2023/08/17 06:34:16;;;;;;;1.75;0.90;;;;;;;19.47;80.14;101264.16;6333881;23;20013;-90
2023/08/17 06:36:58;;;;;;;1.90;1.20;;;;;;;19.50;79.57;101270.16;6333064;23;20020;-90
2023/08/17 06:39:29;;;;;;;0.70;0.70;;;;;;;19.47;80.46;101258.81;6331921;23;20517;-90
2023/08/17 06:41:59;;;;;;;1.63;1.10;;;;;;;19.60;78.49;101265.16;6334158;23;20072;-90
2023/08/17 06:44:30;;;;;;;2.55;1.75;;;;;;;19.58;79.47;101268.84;6306745;23;20013;-90
2023/08/17 06:47:01;;;;;;;0.68;0.68;;;;;;;19.67;78.09;101271.00;6362676;23;20014;-90
2023/08/17 06:49:31;;;;;;;1.83;1.35;;;;;;;19.72;77.93;101271.59;6333315;23;20005;-90
2023/08/17 06:52:01;;;;;;;1.65;1.30;;;;;;;19.66;79.59;101271.94;6369535;23;20055;-89
2023/08/17 06:54:32;;;;;;;1.27;1.17;;;;;;;19.74;79.14;101261.72;6333111;23;20054;-90
2023/08/17 06:57:02;;;;;;;1.13;1.13;;;;;;;19.66;80.11;101270.16;6343785;23;20036;-89
2023/08/17 06:59:33;;;;;;;2.30;1.83;;;;;;;19.73;79.98;101270.66;6334651;23;20459;-90
2023/08/17 07:02:03;;;;;;;0.70;0.70;;;;;;;19.78;78.77;101276.59;6313464;23;20005;-89
2023/08/17 07:04:34;;;;;;;2.05;1.02;;;;;;;19.71;79.60;101280.53;6331860;23;20012;-90
2023/08/17 07:07:04;;;;;;;1.05;1.02;;;;;;;19.69;79.50;101277.09;6333184;23;20482;-89
2023/08/17 07:09:34;;;;;;;3.28;1.38;;;;;;;19.73;79.15;101289.28;6332850;23;20013;-89
2023/08/17 07:12:05;;;;;;;2.38;1.60;;;;;;;19.80;77.99;101293.31;6333016;23;20013;-91
2023/08/17 07:14:35;;;;;;;1.63;1.52;;;;;;;19.80;78.24;101289.81;6332997;23;20009;-89
2023/08/17 07:17:06;;;;;;;3.60;1.83;;;;;;;19.73;79.10;101286.63;6368100;23;20009;-89
2023/08/17 07:19:36;;;;;;;2.17;0.65;;;;;;;19.87;78.33;101282.38;6369001;23;20436;-88
2023/08/17 07:22:06;;;;;;;1.95;1.80;;;;;;;19.74;79.41;101290.16;6332165;23;20010;-87
2023/08/17 07:24:37;;;;;;;1.25;1.15;;;;;;;19.91;78.47;101295.41;6307850;23;20006;-88
2023/08/17 07:27:08;;;;;;;0.93;0.88;;;;;;;19.82;78.79;101286.09;6309249;23;20014;-89
2023/08/17 07:29:38;;;;;;;1.27;1.17;;;;;;;19.80;79.16;101297.78;6308886;23;20017;-88
2023/08/17 07:32:08;;;;;;;2.03;1.92;;;;;;;19.80;79.26;101292.47;6330834;23;20016;-88
2023/08/17 07:34:39;;;;;;;1.65;1.55;;;;;;;19.90;78.03;101292.81;6368319;23;20468;-89
2023/08/17 07:37:10;;;;;;;1.73;1.63;;;;;;;19.88;78.90;101295.59;6307012;23;20489;-89
2023/08/17 07:39:40;;;;;;;1.60;1.50;;;;;;;19.90;78.68;101296.34;6308415;23;20387;-89
2023/08/17 07:42:10;;;;;;;2.15;1.95;;;;;;;19.85;79.48;101305.56;6341375;23;20006;-90
2023/08/17 07:44:41;;;;;;;1.45;1.35;;;;;;;19.74;79.75;101299.00;6333575;23;20005;-90
2023/08/17 07:47:12;;;;;;;1.45;1.30;;;;;;;19.88;78.70;101297.38;6332126;23;20423;-90
2023/08/17 07:49:42;;;;;;;1.55;1.45;;;;;;;19.99;77.72;101302.09;6309546;23;20058;-89
2023/08/17 07:52:13;;;;;;;2.60;2.30;;;;;;;19.87;79.51;101304.50;6333966;23;20009;-89
2023/08/17 07:54:45;;;;;;;1.70;1.42;;;;;;;19.90;79.15;101303.47;6335715;23;20157;-90
2023/08/17 07:57:15;;;;;;;3.25;1.92;;;;;;;19.97;78.19;101304.84;6336626;23;20429;-89
2023/08/17 07:59:46;;;;;;;2.88;1.38;;;;;;;19.75;80.20;101306.03;6334025;23;20084;-89
2023/08/17 08:02:17;;;;;;;7.50;2.50;;;;;;;19.78;79.95;101311.19;6370154;23;20002;-89
2023/08/17 08:04:47;;;;;;;2.40;2.20;;;;;;;19.87;79.91;101314.31;6318437;23;20017;-89
2023/08/17 08:07:17;;;;;;;1.60;1.50;;;;;;;19.74;80.43;101314.13;6334359;23;20340;-89
2023/08/17 08:09:48;;;;;;;0.73;0.65;;;;;;;19.95;79.29;101314.75;6333116;23;20027;-89
2023/08/17 08:12:18;;;;;;;2.22;1.73;;;;;;;19.88;79.79;101316.00;6310430;23;20005;-89
2023/08/17 08:14:49;;;;;;;2.75;1.35;;;;;;;19.95;78.83;101312.91;6371326;23;20016;-89
2023/08/17 08:17:19;;;;;;;8.48;2.33;;;;;;;19.87;79.29;101315.16;6336504;23;20414;-89
2023/08/17 08:19:50;;;;;;;1.77;1.63;;;;;;;20.02;78.42;101317.88;6334002;23;20029;-89
2023/08/17 08:22:21;;;;;;;3.15;2.60;;;;;;;19.89;80.14;101312.41;6333231;23;20020;-89
2023/08/17 08:24:51;;;;;;;1.67;1.58;;;;;;;20.02;78.70;101316.09;6333371;23;20385;-89
2023/08/17 08:27:22;;;;;;;3.92;1.90;;;;;;;20.01;78.88;101322.38;6333531;23;20005;-89
2023/08/17 08:29:52;;;;;;;1.20;1.13;;;;;;;20.07;78.47;101316.69;6333768;23;20005;-89
2023/08/17 08:32:23;;;;;;;1.55;1.45;;;;;;;20.07;78.79;101324.66;6335804;23;20433;-89
2023/08/17 08:34:53;;;;;;;1.63;1.52;;;;;;;20.01;79.14;101324.16;6334686;23;20064;-89
2023/08/17 08:37:23;;;;;;;1.25;1.08;;;;;;;20.03;79.17;101314.28;6334642;23;20006;-89
2023/08/17 08:39:55;;;;;;;0.88;0.88;;;;;;;20.11;78.48;101318.25;6309760;23;20075;-89
2023/08/17 08:42:25;;;;;;;0.77;0.77;;;;;;;20.20;78.20;101313.31;6310917;23;20020;-89
2023/08/17 08:44:56;;;;;;;0.93;0.93;;;;;;;20.21;78.45;101312.34;6309652;23;20386;-89
2023/08/17 08:47:28;;;;;;;1.35;1.25;;;;;;;20.32;77.41;101307.25;6336198;23;20603;-89
2023/08/17 08:50:03;;;;;;;0.75;0.75;;;;;;;20.25;78.78;101305.91;6334226;23;20398;-89
2023/08/17 08:52:38;;;;;;;2.78;1.38;;;;;;;20.30;78.02;101303.81;6369619;23;20105;-89
2023/08/17 08:55:15;;;;;;;2.67;2.05;;;;;;;20.31;78.53;101302.88;6371968;23;20006;-89
2023/08/17 08:57:47;;;;;;;1.52;1.42;;;;;;;20.42;77.63;101300.44;6335483;23;20024;-89
2023/08/17 09:00:18;;;;;;;2.15;1.85;;;;;;;20.47;77.36;101301.97;6369251;23;20013;-89
2023/08/17 09:02:49;;;;;;;0.82;0.80;;;;;;;20.39;78.54;101295.28;6333796;23;20009;-90
2023/08/17 09:05:21;;;;;;;1.92;1.77;;;;;;;20.47;77.82;101301.97;6310402;23;20396;-90
2023/08/17 09:07:52;;;;;;;2.50;1.70;;;;;;;20.33;78.86;101293.00;6369866;23;20372;-90
2023/08/17 09:10:22;;;;;;;1.33;1.27;;;;;;;20.31;79.45;101296.69;6341040;23;20016;-89
2023/08/17 09:12:52;;;;;;;1.13;1.05;;;;;;;20.47;78.11;101301.97;6337724;23;20025;-90
2023/08/17 09:15:23;;;;;;;0.63;0.63;;;;;;;20.45;78.73;101294.91;6352401;23;20041;-89
2023/08/17 09:17:53;;;;;;;2.42;2.22;;;;;;;20.24;80.11;101297.06;6334042;23;20016;-89
2023/08/17 09:20:39;;;;;;;3.55;1.77;;;;;;;20.49;78.00;101292.06;6333302;23;20410;-89
2023/08/17 09:23:15;;;;;;;1.92;1.50;;;;;;;20.47;78.95;101294.84;6333589;23;20021;-90
2023/08/17 09:25:46;;;;;;;1.10;1.10;;;;;;;20.54;77.92;101297.97;6333029;23;20047;-89
2023/08/17 09:28:18;;;;;;;1.67;1.58;;;;;;;20.45;78.96;101305.56;6336123;23;20017;-89
2023/08/17 09:30:54;;;;;;;1.87;1.77;;;;;;;20.38;79.32;101296.22;6342856;23;20008;-90
2023/08/17 09:33:27;;;;;;;1.30;1.20;;;;;;;20.49;78.68;101300.94;6375888;23;20016;-89
2023/08/17 09:35:59;;;;;;;1.10;0.95;;;;;;;20.48;78.83;101293.88;6311615;23;20014;-89
2023/08/17 09:38:30;;;;;;;1.33;1.23;;;;;;;20.53;78.67;101291.78;6333441;23;20059;-89
2023/08/17 09:41:00;;;;;;;2.83;2.60;;;;;;;20.55;78.77;101283.69;6332262;23;20009;-90
2023/08/17 09:43:33;;;;;;;3.28;1.55;;;;;;;20.65;78.06;101282.19;6311058;23;20048;-88
2023/08/17 09:46:03;;;;;;;2.10;1.83;;;;;;;20.66;77.68;101281.25;6312080;23;20037;-89
2023/08/17 09:48:34;;;;;;;1.60;1.17;;;;;;;20.44;79.40;101279.91;6311468;23;20005;-89
2023/08/17 09:51:06;;;;;;;1.77;1.65;;;;;;;20.55;78.78;101270.38;6346227;23;20025;-91
2023/08/17 09:53:39;;;;;;;1.33;1.05;;;;;;;20.56;78.74;101267.63;6364887;23;20020;-91
2023/08/17 09:56:10;;;;;;;2.60;1.33;;;;;;;20.73;77.93;101277.28;6334180;23;20007;-90
2023/08/17 09:58:41;;;;;;;3.20;1.92;;;;;;;20.29;80.33;101279.00;6335502;23;20001;-89
2023/08/17 10:01:13;;;;;;;10.93;2.20;;;;;;;20.47;79.03;101272.63;6332387;23;20012;-90
2023/08/17 10:03:49;;;;;;;1.45;1.35;;;;;;;20.32;80.60;101271.78;6332711;23;20459;-89
2023/08/17 10:06:24;;;;;;;3.95;1.52;;;;;;;20.49;79.32;101273.41;6308205;23;20063;-89
2023/08/17 10:08:58;;;;;;;5.25;2.67;;;;;;;20.49;79.39;101270.75;6333838;23;20013;-89
2023/08/17 10:11:32;;;;;;;1.65;1.45;;;;;;;20.64;78.21;101271.63;6309881;23;20013;-90
2023/08/17 10:14:10;;;;;;;1.92;1.67;;;;;;;20.70;77.68;101271.25;6333450;23;20451;-89
2023/08/17 10:16:45;;;;;;;1.13;1.02;;;;;;;20.74;77.63;101268.34;6334073;23;20005;-89
2023/08/17 10:19:22;;;;;;;1.33;1.27;;;;;;;20.60;79.21;101266.47;6315697;23;20040;-89
2023/08/17 10:22:08;;;;;;;2.03;1.85;;;;;;;20.49;79.64;101271.63;6311010;23;20063;-89
2023/08/17 10:24:40;;;;;;;1.33;1.23;;;;;;;20.62;78.77;101271.72;6308050;23;20060;-89
2023/08/17 10:27:11;;;;;;;2.60;2.10;;;;;;;20.43;80.60;101266.63;6331707;23;20064;-89
2023/08/17 10:29:43;;;;;;;1.73;1.63;;;;;;;20.67;78.89;101274.09;6307711;23;20040;-89
2023/08/17 10:32:14;;;;;;;1.58;1.48;;;;;;;20.72;78.45;101280.88;6307348;23;20435;-89
2023/08/17 10:34:45;;;;;;;2.08;1.88;;;;;;;20.81;78.49;101278.63;6369169;23;20013;-89
2023/08/17 10:37:17;;;;;;;1.20;1.13;;;;;;;20.86;78.05;101282.72;6334958;23;20234;-90
2023/08/17 10:39:48;;;;;;;2.13;2.03;;;;;;;20.89;77.97;101281.66;6315527;23;20055;-90
2023/08/17 10:42:36;;;;;;;1.40;1.27;;;;;;;20.96;77.69;101283.00;6315177;23;20347;-90
2023/08/17 10:45:38;;;;;;;1.42;1.05;;;;;;;20.90;78.17;101278.94;6316261;23;20068;-90
2023/08/17 10:48:08;;;;;;;0.90;0.90;;;;;;;20.79;79.26;101267.19;6323029;23;20053;-89
2023/08/17 10:50:39;;;;;;;1.73;1.63;;;;;;;20.91;79.06;101277.09;6376113;23;20012;-90
2023/08/17 10:53:12;;;;;;;2.60;2.05;;;;;;;20.80;79.49;101271.56;6315002;23;20099;-92
2023/08/17 10:55:48;;;;;;;1.58;1.48;;;;;;;21.06;78.14;101269.97;6327690;23;20021;-90
2023/08/17 10:58:19;;;;;;;2.95;1.05;;;;;;;21.05;78.17;101284.25;6316440;23;20025;-89
2023/08/17 11:00:55;;;;;;;1.48;1.27;;;;;;;21.09;78.12;101279.59;6315690;23;20016;-91
2023/08/17 11:03:26;;;;;;;1.58;1.48;;;;;;;21.07;78.62;101279.69;6315763;23;20014;-89
2023/08/17 11:05:57;;;;;;;2.13;1.90;;;;;;;21.19;77.99;101272.72;6316457;23;20029;-90
2023/08/17 11:08:32;;;;;;;2.40;1.23;;;;;;;21.23;77.72;101280.44;6316078;23;20016;-91
2023/08/17 11:11:09;;;;;;;1.83;1.73;;;;;;;21.37;77.02;101276.88;6315202;23;20020;-90
2023/08/17 11:13:41;;;;;;;1.30;1.25;;;;;;;21.38;77.19;101288.41;6316163;23;20017;-89
2023/08/17 11:16:14;;;;;;;1.40;1.17;;;;;;;21.41;76.83;101288.19;6377021;23;20341;-90
2023/08/17 11:18:49;;;;;;;;;;;;;;;21.30;77.25;101296.91;6341945;23;20296;-90
2023/08/17 11:21:20;;;;;;;2.17;1.65;;;;;;;21.23;77.54;101284.91;6315057;23;20244;-90
2023/08/17 11:23:50;;;;;;;3.13;1.13;;;;;;;21.20;77.56;101290.41;6315435;23;20059;-91
2023/08/17 11:26:22;;;;;;;4.07;2.05;;;;;;;21.17;77.58;101291.47;6340432;23;20006;-89
2023/08/17 11:28:52;;;;;;;1.05;0.77;;;;;;;21.36;77.21;101285.81;6316761;23;20009;-90
2023/08/17 11:31:23;;;;;;;0.95;0.93;;;;;;;21.39;76.45;101290.97;6319851;23;20101;-90
2023/08/17 11:33:53;;;;;;;1.20;1.13;;;;;;;21.31;77.38;101289.75;6321171;23;20017;-90
2023/08/17 11:36:24;;;;;;;1.55;1.45;;;;;;;21.14;78.49;101290.81;6320707;23;20005;-89
2023/08/17 11:38:54;;;;;;;0.77;0.77;;;;;;;21.33;76.95;101291.38;6320739;23;20009;-90
2023/08/17 11:41:25;;;;;;;4.05;1.40;;;;;;;21.48;76.42;101294.88;6344722;23;20009;-91
2023/08/17 11:43:55;;;;;;;3.05;1.58;;;;;;;21.49;76.82;101285.06;6319900;23;20024;-91
2023/08/17 11:46:26;;;;;;;1.92;1.33;;;;;;;21.52;76.11;101285.72;6320588;23;20020;-89